createdAt,value
2023-04-07T00:01:04.781Z,1.80
2023-04-07T00:03:34.130Z,1.73
2023-04-07T00:06:02.061Z,2.10
2023-04-07T00:08:29.943Z,1.40
2023-04-07T00:10:58.817Z,2.03
2023-04-07T00:13:26.868Z,1.50
2023-04-07T00:15:55.325Z,2.03
2023-04-07T00:18:23.576Z,1.42
2023-04-07T00:20:51.396Z,1.90
2023-04-07T00:23:20.239Z,2.25
2023-04-07T00:25:52.933Z,1.67
2023-04-07T00:28:20.781Z,1.80
2023-04-07T00:30:49.098Z,1.50
2023-04-07T00:33:17.008Z,2.25
2023-04-07T00:35:45.405Z,1.65
2023-04-07T00:38:13.900Z,1.55
2023-04-07T00:40:41.783Z,1.20
2023-04-07T00:43:09.581Z,1.55
2023-04-07T00:45:38.210Z,1.58
2023-04-07T00:48:06.696Z,1.77
2023-04-07T00:50:34.509Z,2.08
2023-04-07T00:53:03.018Z,1.95
2023-04-07T00:55:31.321Z,1.80
2023-04-07T00:57:59.158Z,1.70
2023-04-07T01:00:28.397Z,1.85
2023-04-07T01:03:02.456Z,1.75
2023-04-07T01:05:47.604Z,1.67
2023-04-07T01:08:33.784Z,1.30
2023-04-07T01:11:44.146Z,1.77
2023-04-07T01:14:19.886Z,1.75
2023-04-07T01:16:55.920Z,1.58
2023-04-07T01:19:36.372Z,1.40
2023-04-07T01:22:13.177Z,1.35
2023-04-07T01:25:03.035Z,1.62
2023-04-07T01:27:47.328Z,1.58
2023-04-07T01:30:17.672Z,1.60
2023-04-07T01:32:51.187Z,1.73
2023-04-07T01:35:20.399Z,1.55
2023-04-07T01:37:50.892Z,1.67
2023-04-07T01:40:19.429Z,1.20
2023-04-07T01:42:49.052Z,1.83
2023-04-07T01:45:18.630Z,1.92
2023-04-07T01:47:48.121Z,1.70
2023-04-07T01:50:17.279Z,2.03
2023-04-07T01:52:46.569Z,1.67
2023-04-07T01:55:14.758Z,1.60
2023-04-07T01:57:43.624Z,1.50
2023-04-07T02:00:12.929Z,1.40
2023-04-07T02:02:47.080Z,1.40
2023-04-07T02:05:21.170Z,1.87
2023-04-07T02:08:07.396Z,1.70
2023-04-07T02:10:39.374Z,1.67
2023-04-07T02:13:10.902Z,1.60
2023-04-07T02:15:41.926Z,1.62
2023-04-07T02:18:11.106Z,1.50
2023-04-07T02:20:41.659Z,1.77
2023-04-07T02:23:12.919Z,1.60
2023-04-07T02:25:42.406Z,1.83
2023-04-07T02:28:10.671Z,1.67
2023-04-07T02:30:38.522Z,1.70
2023-04-07T02:33:06.366Z,1.48
2023-04-07T02:35:34.591Z,1.70
2023-04-07T02:38:03.188Z,1.77
2023-04-07T02:40:31.242Z,1.80
2023-04-07T02:42:59.842Z,1.60
2023-04-07T02:45:27.709Z,1.62
2023-04-07T02:47:55.642Z,1.55
2023-04-07T02:50:23.914Z,2.00
2023-04-07T02:52:51.786Z,1.67
2023-04-07T02:55:19.719Z,1.50
2023-04-07T02:57:48.035Z,1.67
2023-04-07T03:00:16.973Z,1.50
2023-04-07T03:02:46.085Z,1.50
2023-04-07T03:05:14.861Z,1.95
2023-04-07T03:07:42.755Z,1.65
2023-04-07T03:10:11.749Z,1.50
2023-04-07T03:12:39.953Z,1.52
2023-04-07T03:15:08.614Z,2.00
2023-04-07T03:17:37.431Z,1.48
2023-04-07T03:20:06.913Z,1.73
2023-04-07T03:22:36.598Z,1.20
2023-04-07T03:25:08.153Z,1.65
2023-04-07T03:27:36.383Z,1.50
2023-04-07T03:30:05.126Z,1.77
2023-04-07T03:32:33.003Z,1.90
2023-04-07T03:35:01.274Z,1.95
2023-04-07T03:37:30.688Z,1.80
2023-04-07T03:39:59.904Z,1.50
2023-04-07T03:42:28.299Z,1.55
2023-04-07T03:44:57.351Z,1.33
2023-04-07T03:47:25.824Z,1.70
2023-04-07T03:49:55.184Z,1.55
2023-04-07T03:52:23.549Z,2.40
2023-04-07T03:54:52.598Z,1.95
2023-04-07T03:57:22.363Z,1.33
2023-04-07T03:59:51.547Z,1.30
2023-04-07T04:02:19.870Z,1.20
2023-04-07T04:04:49.690Z,1.00
2023-04-07T04:07:18.099Z,1.50
2023-04-07T04:09:46.209Z,1.45
2023-04-07T04:12:14.454Z,1.70
2023-04-07T04:14:43.315Z,1.50
2023-04-07T04:17:11.480Z,2.28
2023-04-07T04:19:40.304Z,1.77
2023-04-07T04:22:10.480Z,1.52
2023-04-07T04:24:39.618Z,1.42
2023-04-07T04:27:07.914Z,1.52
2023-04-07T04:29:37.132Z,1.50
2023-04-07T04:32:05.952Z,1.77
2023-04-07T04:34:35.412Z,1.60
2023-04-07T04:37:03.402Z,1.55
2023-04-07T04:39:31.139Z,1.60
2023-04-07T04:42:00.033Z,1.42
2023-04-07T04:44:31.067Z,1.50
2023-04-07T04:47:01.175Z,1.50
2023-04-07T04:49:29.567Z,1.75
2023-04-07T04:52:00.144Z,2.00
2023-04-07T04:54:33.427Z,1.40
2023-04-07T04:57:02.036Z,1.42
2023-04-07T04:59:30.524Z,1.98
2023-04-07T05:01:58.995Z,1.42
2023-04-07T05:04:28.914Z,1.25
2023-04-07T05:06:57.787Z,1.15
2023-04-07T05:09:26.732Z,1.15
2023-04-07T05:11:54.495Z,1.33
2023-04-07T05:14:23.323Z,1.15
2023-04-07T05:16:53.226Z,1.27
2023-04-07T05:19:21.560Z,1.00
2023-04-07T05:21:50.800Z,1.15
2023-04-07T05:24:20.677Z,1.33
2023-04-07T05:26:51.798Z,1.23
2023-04-07T05:29:19.613Z,1.00
2023-04-07T05:31:47.475Z,1.50
2023-04-07T05:34:15.974Z,1.10
2023-04-07T05:36:44.059Z,1.27
2023-04-07T05:39:12.004Z,1.27
2023-04-07T05:41:40.885Z,1.65
2023-04-07T05:44:09.686Z,2.95
2023-04-07T05:46:37.915Z,1.40
2023-04-07T05:49:18.877Z,1.40
2023-04-07T05:51:49.125Z,1.67
2023-04-07T05:54:17.666Z,1.40
2023-04-07T05:56:45.898Z,1.55
2023-04-07T05:59:14.065Z,1.10
2023-04-07T06:01:43.368Z,1.23
2023-04-07T06:04:12.067Z,1.17
2023-04-07T06:06:40.206Z,1.27
2023-04-07T06:09:08.335Z,1.42
2023-04-07T06:11:37.130Z,1.10
2023-04-07T06:14:05.014Z,1.15
2023-04-07T06:16:32.955Z,1.30
2023-04-07T06:19:02.125Z,1.30
2023-04-07T06:21:31.019Z,1.10
2023-04-07T06:23:59.119Z,1.45
2023-04-07T06:26:28.697Z,1.20
2023-04-07T06:28:56.873Z,0.95
2023-04-07T06:31:25.183Z,1.12
2023-04-07T06:33:53.748Z,1.10
2023-04-07T06:36:22.072Z,1.30
2023-04-07T06:38:50.071Z,0.90
2023-04-07T06:41:18.370Z,1.35
2023-04-07T06:43:51.748Z,1.30
2023-04-07T06:46:20.555Z,1.02
2023-04-07T06:48:48.293Z,1.20
2023-04-07T06:51:16.344Z,1.15
2023-04-07T06:53:44.656Z,1.20
2023-04-07T06:56:12.769Z,2.20
2023-04-07T06:58:40.912Z,1.23
2023-04-07T07:01:09.420Z,0.82
2023-04-07T07:03:37.390Z,0.90
2023-04-07T07:06:05.898Z,1.48
2023-04-07T07:08:34.273Z,0.82
2023-04-07T07:11:02.022Z,0.98
2023-04-07T07:13:29.878Z,1.12
2023-04-07T07:15:58.319Z,0.70
2023-04-07T07:18:26.494Z,1.15
2023-04-07T07:20:54.388Z,0.95
2023-04-07T07:23:22.543Z,1.17
2023-04-07T07:25:50.371Z,0.85
2023-04-07T07:28:18.710Z,1.20
2023-04-07T07:30:46.995Z,0.80
2023-04-07T07:33:14.863Z,0.80
2023-04-07T07:35:42.848Z,1.10
2023-04-07T07:38:12.517Z,1.35
2023-04-07T07:40:40.427Z,1.33
2023-04-07T07:43:08.251Z,1.60
2023-04-07T07:45:36.442Z,1.02
2023-04-07T07:48:04.393Z,1.52
2023-04-07T07:50:32.194Z,1.10
2023-04-07T07:53:00.514Z,1.33
2023-04-07T07:55:29.642Z,1.30
2023-04-07T07:57:57.788Z,1.05
2023-04-07T08:00:26.241Z,0.90
2023-04-07T08:02:54.635Z,0.80
2023-04-07T08:05:22.584Z,0.85
2023-04-07T08:07:53.509Z,0.90
2023-04-07T08:10:23.623Z,1.35
2023-04-07T08:12:51.778Z,0.95
2023-04-07T08:15:19.611Z,0.90
2023-04-07T08:17:47.841Z,1.23
2023-04-07T08:20:16.616Z,0.88
2023-04-07T08:22:44.502Z,0.88
2023-04-07T08:25:12.897Z,0.80
2023-04-07T08:27:40.811Z,0.62
2023-04-07T08:30:08.844Z,0.57
2023-04-07T08:32:39.274Z,1.00
2023-04-07T08:35:07.440Z,0.90
2023-04-07T08:37:36.332Z,1.00
2023-04-07T08:40:05.509Z,1.40
2023-04-07T08:42:35.363Z,2.00
2023-04-07T08:45:06.304Z,1.02
2023-04-07T08:47:36.180Z,2.47
2023-04-07T08:50:09.749Z,1.70
2023-04-07T08:52:49.156Z,1.20
2023-04-07T08:55:17.212Z,2.55
2023-04-07T08:57:46.551Z,7.57
2023-04-07T09:00:15.838Z,3.70
2023-04-07T09:02:49.691Z,1.50
2023-04-07T09:05:17.963Z,1.80
2023-04-07T09:07:45.646Z,1.15
2023-04-07T09:10:13.540Z,0.90
2023-04-07T09:12:42.022Z,0.90
2023-04-07T09:15:10.131Z,1.20
2023-04-07T09:17:37.984Z,1.40
2023-04-07T09:20:07.241Z,1.70
2023-04-07T09:22:45.838Z,1.10
2023-04-07T09:25:19.339Z,0.90
2023-04-07T09:28:01.692Z,1.30
2023-04-07T09:30:31.866Z,1.20
2023-04-07T09:33:01.641Z,0.88
2023-04-07T09:35:30.299Z,1.20
2023-04-07T09:38:08.473Z,0.80
2023-04-07T09:40:37.889Z,1.20
2023-04-07T09:43:07.060Z,1.00
2023-04-07T09:45:39.563Z,0.52
2023-04-07T09:48:09.164Z,1.60
2023-04-07T09:50:41.702Z,1.15
2023-04-07T09:53:09.975Z,0.88
2023-04-07T09:55:40.212Z,1.12
2023-04-07T09:58:09.326Z,1.05
2023-04-07T10:00:38.487Z,0.80
2023-04-07T10:03:08.121Z,1.25
2023-04-07T10:05:39.636Z,1.00
2023-04-07T10:08:07.887Z,0.82
2023-04-07T10:10:36.907Z,1.80
2023-04-07T10:13:06.471Z,1.75
2023-04-07T10:15:35.070Z,1.10
2023-04-07T10:18:07.793Z,1.70
2023-04-07T10:20:40.013Z,1.40
2023-04-07T10:23:22.107Z,2.03
2023-04-07T10:25:53.057Z,1.80
2023-04-07T10:28:23.653Z,1.55
2023-04-07T10:30:52.947Z,1.50
2023-04-07T10:33:48.109Z,2.72
2023-04-07T10:36:18.261Z,1.02
2023-04-07T10:39:07.858Z,0.95
2023-04-07T10:41:37.989Z,1.35
2023-04-07T10:44:28.963Z,1.20
2023-04-07T10:46:57.462Z,1.10
2023-04-07T10:49:25.315Z,1.15
2023-04-07T10:52:12.271Z,1.70
2023-04-07T10:54:41.792Z,1.05
2023-04-07T10:57:17.311Z,1.45
2023-04-07T11:00:10.853Z,1.02
2023-04-07T11:02:40.738Z,0.98
2023-04-07T11:05:09.360Z,1.20
2023-04-07T11:07:55.500Z,0.82
2023-04-07T11:10:23.981Z,1.30
2023-04-07T11:13:08.900Z,1.30
2023-04-07T11:15:40.373Z,0.77
2023-04-07T11:18:19.584Z,1.27
2023-04-07T11:21:01.226Z,1.35
2023-04-07T11:23:29.875Z,4.72
2023-04-07T11:26:02.507Z,1.60
2023-04-07T11:28:31.764Z,1.33
2023-04-07T11:31:00.662Z,1.58
2023-04-07T11:33:31.073Z,1.52
2023-04-07T11:36:02.109Z,0.98
2023-04-07T11:38:36.630Z,1.73
2023-04-07T11:41:13.625Z,1.30
2023-04-07T11:43:42.677Z,1.25
2023-04-07T11:46:19.190Z,1.05
2023-04-07T11:48:47.737Z,0.90
2023-04-07T11:51:21.283Z,1.10
2023-04-07T11:53:56.770Z,1.20
2023-04-07T11:56:25.242Z,1.42
2023-04-07T11:58:55.357Z,1.27
2023-04-07T12:01:25.164Z,1.42
2023-04-07T12:04:02.384Z,1.35
2023-04-07T12:06:35.251Z,0.90
2023-04-07T12:09:04.958Z,0.80
2023-04-07T12:11:33.958Z,1.17
2023-04-07T12:14:05.361Z,1.20
2023-04-07T12:16:39.757Z,1.13
2023-04-07T12:19:07.658Z,1.00
2023-04-07T12:21:35.816Z,1.12
2023-04-07T12:24:03.794Z,1.20
2023-04-07T12:26:31.747Z,1.10
2023-04-07T12:29:06.249Z,1.00
2023-04-07T12:31:34.934Z,1.75
2023-04-07T12:34:03.755Z,1.12
2023-04-07T12:36:31.773Z,1.30
2023-04-07T12:39:00.300Z,1.45
2023-04-07T12:41:28.872Z,1.58
2023-04-07T12:43:56.834Z,1.08
2023-04-07T12:46:24.963Z,1.12
2023-04-07T12:48:53.646Z,0.85
2023-04-07T12:51:21.518Z,0.90
2023-04-07T12:53:49.646Z,1.10
2023-04-07T12:56:17.978Z,1.20
2023-04-07T12:58:46.260Z,1.00
2023-04-07T13:01:14.869Z,1.33
2023-04-07T13:03:43.523Z,1.35
2023-04-07T13:06:12.001Z,0.88
2023-04-07T13:08:41.137Z,0.70
2023-04-07T13:11:09.312Z,0.98
2023-04-07T13:13:37.096Z,1.08
2023-04-07T13:16:05.058Z,1.30
2023-04-07T13:18:33.358Z,0.90
2023-04-07T13:23:42.076Z,1.30
2023-04-07T13:26:11.683Z,1.20
2023-04-07T13:28:39.479Z,1.17
2023-04-07T13:31:07.958Z,1.10
2023-04-07T13:33:36.265Z,1.17
2023-04-07T13:36:04.294Z,1.37
2023-04-07T13:38:32.197Z,0.85
2023-04-07T13:41:00.427Z,0.80
2023-04-07T13:43:28.312Z,0.80
2023-04-07T13:45:56.979Z,1.75
2023-04-07T13:48:25.179Z,1.67
2023-04-07T13:50:52.987Z,1.77
2023-04-07T13:53:22.102Z,27.30
2023-04-07T13:55:50.175Z,1.67
2023-04-07T13:58:18.025Z,3.08
2023-04-07T14:00:46.053Z,1.90
2023-04-07T14:03:15.816Z,1.73
2023-04-07T14:05:43.814Z,2.10
2023-04-07T14:08:11.705Z,2.20
2023-04-07T14:10:41.039Z,1.10
2023-04-07T14:13:08.863Z,1.65
2023-04-07T14:15:36.791Z,3.50
2023-04-07T14:18:05.253Z,1.75
2023-04-07T14:20:34.066Z,1.75
2023-04-07T14:23:02.018Z,1.90
2023-04-07T14:25:30.188Z,1.05
2023-04-07T14:27:58.504Z,2.10
2023-04-07T14:30:26.469Z,1.80
2023-04-07T14:32:54.782Z,1.45
2023-04-07T14:35:22.749Z,1.40
2023-04-07T14:37:50.639Z,1.75
2023-04-07T14:40:21.425Z,2.78
2023-04-07T14:42:49.392Z,1.92
2023-04-07T14:45:18.155Z,1.30
2023-04-07T14:47:46.398Z,1.10
2023-04-07T14:50:14.340Z,1.33
2023-04-07T14:52:42.245Z,1.65
2023-04-07T14:55:10.605Z,2.03
2023-04-07T14:57:39.199Z,2.15
2023-04-07T15:00:07.929Z,1.92
2023-04-07T15:02:37.006Z,1.62
2023-04-07T15:05:05.273Z,1.70
2023-04-07T15:07:33.030Z,2.22
2023-04-07T15:10:01.259Z,5.10
2023-04-07T15:12:31.815Z,5.20
2023-04-07T15:14:59.558Z,2.58
2023-04-07T15:17:36.671Z,1.83
2023-04-07T15:20:22.968Z,1.48
2023-04-07T15:22:51.074Z,3.80
2023-04-07T15:25:37.285Z,10.65
2023-04-07T15:28:05.846Z,12.37
2023-04-07T15:30:35.870Z,7.45
2023-04-07T15:33:05.902Z,7.20
2023-04-07T15:35:33.736Z,3.90
2023-04-07T15:38:01.629Z,7.07
2023-04-07T15:40:29.854Z,16.10
2023-04-07T15:42:57.522Z,17.00
2023-04-07T15:45:26.075Z,18.00
2023-04-07T15:47:54.402Z,16.27
2023-04-07T15:50:23.610Z,10.43
2023-04-07T15:52:51.515Z,9.90
2023-04-07T15:55:19.876Z,7.40
2023-04-07T15:57:47.702Z,6.55
2023-04-07T16:00:15.744Z,5.28
2023-04-07T16:02:44.117Z,4.80
2023-04-07T16:05:11.944Z,1.92
2023-04-07T16:07:39.771Z,1.90
2023-04-07T16:10:08.796Z,2.00
2023-04-07T16:12:38.184Z,2.90
2023-04-07T16:15:07.653Z,27.08
2023-04-07T16:17:36.912Z,30.73
2023-04-07T16:20:05.218Z,27.55
2023-04-07T16:22:33.111Z,37.22
2023-04-07T16:25:01.566Z,60.75
2023-04-07T16:27:30.826Z,5.75
2023-04-07T16:29:58.646Z,5.85
2023-04-07T16:32:26.977Z,5.55
2023-04-07T16:34:54.941Z,5.90
2023-04-07T16:37:22.840Z,4.50
2023-04-07T16:39:51.013Z,8.00
2023-04-07T16:42:18.885Z,14.93
2023-04-07T16:44:46.857Z,19.10
2023-04-07T16:47:14.977Z,26.48
2023-04-07T16:49:42.786Z,22.73
2023-04-07T16:52:13.340Z,13.60
2023-04-07T16:54:41.516Z,12.37
2023-04-07T16:57:09.351Z,13.02
2023-04-07T16:59:37.204Z,12.93
2023-04-07T17:02:12.008Z,12.52
2023-04-07T17:04:41.230Z,10.52
2023-04-07T17:07:10.581Z,12.55
2023-04-07T17:09:38.550Z,13.48
2023-04-07T17:12:06.658Z,7.72
2023-04-07T17:14:35.086Z,9.30
2023-04-07T17:17:03.103Z,7.22
2023-04-07T17:19:30.972Z,6.95
2023-04-07T17:21:59.226Z,7.53
2023-04-07T17:24:30.916Z,7.12
2023-04-07T17:26:59.202Z,6.27
2023-04-07T17:29:29.344Z,5.40
2023-04-07T17:31:57.160Z,5.20
2023-04-07T17:34:25.748Z,4.87
2023-04-07T17:36:53.621Z,6.25
2023-04-07T17:39:21.633Z,5.45
2023-04-07T17:41:49.808Z,7.60
2023-04-07T17:44:17.739Z,7.15
2023-04-07T17:46:45.889Z,6.47
2023-04-07T17:49:14.889Z,5.57
2023-04-07T17:51:42.895Z,6.43
2023-04-07T17:54:10.585Z,5.40
2023-04-07T17:56:39.117Z,6.85
2023-04-07T17:59:06.977Z,6.60
2023-04-07T18:01:34.919Z,6.30
2023-04-07T18:04:05.969Z,5.35
2023-04-07T18:06:35.468Z,5.70
2023-04-07T18:09:06.515Z,5.32
2023-04-07T18:11:34.354Z,6.22
2023-04-07T18:14:02.452Z,6.40
2023-04-07T18:16:30.860Z,6.57
2023-04-07T18:18:58.980Z,6.12
2023-04-07T18:21:27.497Z,7.25
2023-04-07T18:23:56.220Z,5.47
2023-04-07T18:26:24.058Z,5.93
2023-04-07T18:28:51.935Z,6.57
2023-04-07T18:31:20.475Z,6.68
2023-04-07T18:33:48.699Z,6.30
2023-04-07T18:36:17.346Z,7.47
2023-04-07T18:38:45.866Z,5.95
2023-04-07T18:41:14.543Z,5.90
2023-04-07T18:43:42.698Z,6.20
2023-04-07T18:46:11.067Z,5.93
2023-04-07T18:48:39.413Z,5.87
2023-04-07T18:51:07.806Z,5.50
2023-04-07T18:53:36.302Z,5.72
2023-04-07T18:56:04.211Z,5.50
2023-04-07T18:58:32.224Z,5.25
2023-04-07T19:01:00.457Z,4.82
2023-04-07T19:03:28.480Z,5.30
2023-04-07T19:05:56.955Z,3.83
2023-04-07T19:08:25.007Z,4.78
2023-04-07T19:10:52.915Z,3.87
2023-04-07T19:13:20.989Z,5.10
2023-04-07T19:15:49.121Z,4.65
2023-04-07T19:18:16.996Z,4.32
2023-04-07T19:20:44.872Z,4.18
2023-04-07T19:23:13.170Z,4.30
2023-04-07T19:25:44.388Z,4.00
2023-04-07T19:28:14.060Z,3.28
2023-04-07T19:30:41.782Z,3.22
2023-04-07T19:33:10.461Z,3.58
2023-04-07T19:35:42.602Z,3.22
2023-04-07T19:38:10.683Z,3.28
2023-04-07T19:40:38.966Z,3.97
2023-04-07T19:43:07.451Z,3.37
2023-04-07T19:45:35.246Z,2.30
2023-04-07T19:48:03.771Z,2.80
2023-04-07T19:50:31.907Z,3.30
2023-04-07T19:52:59.799Z,3.35
2023-04-07T19:55:28.085Z,3.28
2023-04-07T19:57:56.053Z,2.67
2023-04-07T20:00:24.002Z,2.78
2023-04-07T20:02:52.981Z,2.60
2023-04-07T20:05:21.111Z,3.58
2023-04-07T20:07:48.942Z,2.45
2023-04-07T20:10:17.332Z,2.30
2023-04-07T20:12:45.216Z,3.42
2023-04-07T20:15:13.048Z,3.33
2023-04-07T20:17:41.534Z,3.28
2023-04-07T20:20:09.823Z,3.12
2023-04-07T20:22:37.647Z,3.03
2023-04-07T20:25:06.579Z,2.90
2023-04-07T20:27:34.724Z,2.60
2023-04-07T20:30:03.346Z,2.60
2023-04-07T20:32:31.597Z,2.65
2023-04-07T20:34:59.517Z,2.42
2023-04-07T20:37:28.094Z,2.17
2023-04-07T20:39:56.356Z,2.22
2023-04-07T20:42:24.235Z,1.70
2023-04-07T20:44:53.570Z,2.00
2023-04-07T20:47:22.147Z,2.10
2023-04-07T20:49:50.085Z,2.33
2023-04-07T20:52:18.995Z,2.40
2023-04-07T20:54:48.656Z,2.20
2023-04-07T20:57:16.595Z,2.03
2023-04-07T20:59:44.392Z,1.73
2023-04-07T21:02:12.700Z,1.90
2023-04-07T21:04:40.874Z,1.85
2023-04-07T21:07:08.567Z,2.47
2023-04-07T21:09:36.710Z,1.77
2023-04-07T21:12:04.666Z,2.30
2023-04-07T21:14:32.675Z,2.17
2023-04-07T21:17:00.806Z,2.60
2023-04-07T21:19:28.757Z,2.33
2023-04-07T21:21:56.689Z,3.15
2023-04-07T21:24:24.914Z,2.80
2023-04-07T21:26:53.759Z,2.80
2023-04-07T21:29:22.347Z,3.08
2023-04-07T21:31:51.121Z,2.95
2023-04-07T21:34:18.971Z,2.97
2023-04-07T21:36:46.783Z,2.40
2023-04-07T21:39:15.010Z,2.85
2023-04-07T21:41:45.512Z,2.50
2023-04-07T21:44:13.583Z,2.50
2023-04-07T21:46:41.973Z,2.62
2023-04-07T21:49:09.789Z,2.85
2023-04-07T21:51:37.987Z,2.92
2023-04-07T21:54:06.618Z,3.00
2023-04-07T21:56:34.453Z,3.00
2023-04-07T21:59:03.664Z,2.95
2023-04-07T22:01:32.050Z,2.50
2023-04-07T22:04:00.445Z,2.47
2023-04-07T22:06:28.459Z,2.67
2023-04-07T22:09:01.921Z,5.45
2023-04-07T22:11:30.794Z,10.43
2023-04-07T22:13:58.706Z,12.40
2023-04-07T22:16:26.594Z,5.55
2023-04-07T22:18:54.988Z,3.83
2023-04-07T22:21:22.979Z,3.12
2023-04-07T22:23:50.814Z,2.62
2023-04-07T22:26:19.070Z,2.53
2023-04-07T22:28:46.928Z,2.65
2023-04-07T22:31:14.829Z,2.90
2023-04-07T22:33:43.110Z,2.58
2023-04-07T22:36:11.044Z,2.62
2023-04-07T22:38:38.938Z,3.30
2023-04-07T22:41:07.005Z,2.35
2023-04-07T22:43:34.940Z,2.80
2023-04-07T22:46:02.780Z,7.53
2023-04-07T22:48:31.138Z,9.73
2023-04-07T22:50:58.932Z,7.97
2023-04-07T22:53:26.778Z,4.45
2023-04-07T22:55:54.993Z,3.60
2023-04-07T22:58:22.829Z,2.67
2023-04-07T23:00:50.731Z,4.18
2023-04-07T23:03:19.023Z,3.22
2023-04-07T23:05:46.836Z,2.33
2023-04-07T23:08:14.632Z,2.70
2023-04-07T23:10:42.869Z,2.70
2023-04-07T23:13:10.700Z,2.83
2023-04-07T23:15:38.493Z,2.72
2023-04-07T23:18:06.912Z,2.83
2023-04-07T23:20:34.783Z,2.75
2023-04-07T23:23:02.568Z,2.80
2023-04-07T23:25:30.879Z,2.58
2023-04-07T23:27:58.626Z,3.03
2023-04-07T23:30:26.624Z,3.10
2023-04-07T23:32:54.836Z,2.80
2023-04-07T23:35:22.646Z,3.30
2023-04-07T23:37:50.620Z,2.30
2023-04-07T23:40:18.978Z,3.10
2023-04-07T23:42:46.926Z,3.22
2023-04-07T23:45:14.981Z,2.40
2023-04-07T23:47:43.253Z,2.75
2023-04-07T23:50:11.318Z,3.22
2023-04-07T23:52:39.165Z,2.87
2023-04-07T23:55:07.720Z,3.83
2023-04-07T23:57:35.579Z,3.20
